CCM109C LIMJ-LFPO
Flight info
| Callsign | CCM109C |
|---|---|
| Flight time | 1h 15m |
| Altitude | 36000 |
| Route | LAGEN1M/28 LAGEN TOP AOSTA ORSUD MOLUS UNKIR DJL |
| Aircraft | A320/M-SDE3FGHIRWY/LB1 |
Departure
| Time | 2026-04-26 16:23 |
|---|---|
| Airport | Genoa Cristoforo Colombo Airport (LIMJ) |
Arrival
| Time | 2026-04-26 17:39 |
|---|---|
| Airport | Paris-Orly Airport (LFPO) |
| Time | Latitude | Longitude | Altitude | Speed | Heading |
|---|---|---|---|---|---|
| 2026-04-26 15:57 | 44.41398 | 8.85120 | 10 ft | 0 kts | 16° |
| 2026-04-26 16:12 | 44.41381 | 8.85101 | 13 ft | 4 kts | 31° |
| 2026-04-26 16:13 | 44.41358 | 8.85081 | 12 ft | 4 kts | 38° |
| 2026-04-26 16:13 | 44.41341 | 8.85056 | 10 ft | 4 kts | 74° |
| 2026-04-26 16:13 | 44.41339 | 8.85039 | 10 ft | 0 kts | 105° |
| 2026-04-26 16:17 | 44.41331 | 8.85083 | 10 ft | 9 kts | 105° |
| 2026-04-26 16:17 | 44.41316 | 8.85159 | 10 ft | 8 kts | 105° |
| 2026-04-26 16:17 | 44.41303 | 8.85225 | 9 ft | 6 kts | 116° |
| 2026-04-26 16:18 | 44.41276 | 8.85266 | 9 ft | 5 kts | 143° |
| 2026-04-26 16:18 | 44.41223 | 8.85281 | 9 ft | 3 kts | 185° |
| 2026-04-26 16:19 | 44.41155 | 8.85256 | 9 ft | 8 kts | 195° |
| 2026-04-26 16:19 | 44.41108 | 8.85237 | 9 ft | 0 kts | 198° |
| 2026-04-26 16:20 | 44.41068 | 8.85208 | 9 ft | 12 kts | 221° |
| 2026-04-26 16:20 | 44.40998 | 8.85213 | 6 ft | 12 kts | 122° |
| 2026-04-26 16:21 | 44.40974 | 8.85318 | 8 ft | 10 kts | 106° |
| 2026-04-26 16:21 | 44.40949 | 8.85446 | 9 ft | 18 kts | 105° |
| 2026-04-26 16:21 | 44.40913 | 8.85627 | 10 ft | 20 kts | 104° |
| 2026-04-26 16:21 | 44.40876 | 8.85819 | 11 ft | 21 kts | 105° |
| 2026-04-26 16:22 | 44.40863 | 8.85988 | 10 ft | 17 kts | 68° |
| 2026-04-26 16:22 | 44.40854 | 8.86061 | 10 ft | 4 kts | 181° |
| 2026-04-26 16:22 | 44.40836 | 8.86010 | 10 ft | 8 kts | 287° |
| 2026-04-26 16:22 | 44.40851 | 8.85946 | 13 ft | 6 kts | 284° |
| 2026-04-26 16:23 | 44.40871 | 8.85835 | 11 ft | 34 kts | 284° |
| 2026-04-26 16:23 | 44.41005 | 8.85147 | 6 ft | 108 kts | 285° |
| 2026-04-26 16:23 | 44.41251 | 8.83879 | 67 ft | 154 kts | 285° |
| 2026-04-26 16:23 | 44.41550 | 8.82445 | 711 ft | 155 kts | 285° |
| 2026-04-26 16:24 | 44.41690 | 8.80961 | 1350 ft | 156 kts | 254° |
| 2026-04-26 16:24 | 44.41109 | 8.79704 | 1887 ft | 164 kts | 216° |
| 2026-04-26 16:24 | 44.39983 | 8.79178 | 2222 ft | 185 kts | 176° |
| 2026-04-26 16:24 | 44.38759 | 8.79784 | 2883 ft | 188 kts | 152° |
| 2026-04-26 16:25 | 44.37597 | 8.80639 | 3618 ft | 191 kts | 151° |
| 2026-04-26 16:25 | 44.36405 | 8.81485 | 4291 ft | 195 kts | 156° |
| 2026-04-26 16:25 | 44.35055 | 8.81805 | 4949 ft | 202 kts | 179° |
| 2026-04-26 16:25 | 44.33636 | 8.81709 | 5600 ft | 206 kts | 180° |
| 2026-04-26 16:26 | 44.32189 | 8.81609 | 6245 ft | 210 kts | 180° |
| 2026-04-26 16:26 | 44.31210 | 8.81543 | 6701 ft | 213 kts | 180° |
| 2026-04-26 16:26 | 44.29217 | 8.81410 | 7643 ft | 216 kts | 181° |
| 2026-04-26 16:26 | 44.27711 | 8.81309 | 8363 ft | 218 kts | 181° |
| 2026-04-26 16:27 | 44.26188 | 8.81207 | 9103 ft | 220 kts | 181° |
| 2026-04-26 16:27 | 44.24654 | 8.81103 | 9842 ft | 222 kts | 181° |
| 2026-04-26 16:27 | 44.23108 | 8.80996 | 10534 ft | 224 kts | 182° |
| 2026-04-26 16:27 | 44.21539 | 8.80891 | 11157 ft | 227 kts | 182° |
| 2026-04-26 16:28 | 44.19948 | 8.80788 | 11784 ft | 230 kts | 182° |
| 2026-04-26 16:28 | 44.18339 | 8.80683 | 12426 ft | 233 kts | 182° |
| 2026-04-26 16:28 | 44.16728 | 8.80575 | 13040 ft | 236 kts | 183° |
| 2026-04-26 16:28 | 44.15130 | 8.80087 | 13645 ft | 239 kts | 210° |
| 2026-04-26 16:29 | 44.13945 | 8.78500 | 14184 ft | 242 kts | 243° |
| 2026-04-26 16:29 | 44.13553 | 8.76177 | 14397 ft | 259 kts | 273° |
| 2026-04-26 16:29 | 44.13652 | 8.73559 | 14628 ft | 280 kts | 274° |
| 2026-04-26 16:29 | 44.13804 | 8.70821 | 15214 ft | 286 kts | 282° |
| 2026-04-26 16:30 | 44.14437 | 8.68211 | 15949 ft | 286 kts | 298° |
| 2026-04-26 16:30 | 44.15613 | 8.65950 | 16514 ft | 297 kts | 314° |
| 2026-04-26 16:30 | 44.17351 | 8.64211 | 16677 ft | 321 kts | 333° |
| 2026-04-26 16:30 | 44.19446 | 8.62855 | 16814 ft | 343 kts | 334° |
| 2026-04-26 16:31 | 44.21680 | 8.61420 | 16941 ft | 364 kts | 334° |
| 2026-04-26 16:31 | 44.24040 | 8.59899 | 17073 ft | 383 kts | 334° |
| 2026-04-26 16:31 | 44.26517 | 8.58288 | 17203 ft | 401 kts | 334° |
| 2026-04-26 16:31 | 44.29092 | 8.56601 | 17358 ft | 416 kts | 333° |
| 2026-04-26 16:32 | 44.31738 | 8.54862 | 17709 ft | 424 kts | 333° |
| 2026-04-26 16:32 | 44.33506 | 8.53696 | 18030 ft | 426 kts | 333° |
| 2026-04-26 16:32 | 44.37118 | 8.51315 | 18640 ft | 431 kts | 333° |
| 2026-04-26 16:32 | 44.39743 | 8.49265 | 19069 ft | 432 kts | 324° |
| 2026-04-26 16:33 | 44.42091 | 8.46644 | 19525 ft | 432 kts | 317° |
| 2026-04-26 16:33 | 44.44387 | 8.43910 | 19968 ft | 434 kts | 317° |
| 2026-04-26 16:33 | 44.46696 | 8.41165 | 20328 ft | 437 kts | 318° |
| 2026-04-26 16:33 | 44.49021 | 8.38404 | 20673 ft | 441 kts | 318° |
| 2026-04-26 16:34 | 44.51369 | 8.35618 | 21070 ft | 442 kts | 318° |
| 2026-04-26 16:34 | 44.53727 | 8.32820 | 21395 ft | 446 kts | 318° |
| 2026-04-26 16:34 | 44.56102 | 8.30001 | 21712 ft | 449 kts | 318° |
| 2026-04-26 16:34 | 44.58487 | 8.27161 | 22056 ft | 451 kts | 318° |
| 2026-04-26 16:35 | 44.60880 | 8.24302 | 22389 ft | 453 kts | 318° |
| 2026-04-26 16:35 | 44.63287 | 8.21421 | 22727 ft | 455 kts | 318° |
| 2026-04-26 16:35 | 44.65670 | 8.18564 | 23038 ft | 457 kts | 318° |
| 2026-04-26 16:35 | 44.68091 | 8.15660 | 23347 ft | 459 kts | 318° |
| 2026-04-26 16:36 | 44.70523 | 8.12744 | 23650 ft | 461 kts | 318° |
| 2026-04-26 16:36 | 44.72968 | 8.09807 | 23899 ft | 462 kts | 318° |
| 2026-04-26 16:36 | 44.75417 | 8.06863 | 24143 ft | 464 kts | 318° |
| 2026-04-26 16:36 | 44.77878 | 8.03905 | 24378 ft | 465 kts | 318° |
| 2026-04-26 16:37 | 44.80343 | 8.00940 | 24605 ft | 466 kts | 318° |
| 2026-04-26 16:37 | 44.82812 | 7.97967 | 24817 ft | 467 kts | 318° |
| 2026-04-26 16:37 | 44.85281 | 7.94990 | 25010 ft | 468 kts | 318° |
| 2026-04-26 16:37 | 44.86923 | 7.93004 | 25129 ft | 469 kts | 318° |
| 2026-04-26 16:38 | 44.90212 | 7.89020 | 25346 ft | 471 kts | 319° |
| 2026-04-26 16:38 | 44.92874 | 7.86332 | 25490 ft | 473 kts | 327° |
| 2026-04-26 16:38 | 44.95836 | 7.84246 | 25679 ft | 475 kts | 336° |
| 2026-04-26 16:38 | 44.98890 | 7.82483 | 25891 ft | 474 kts | 336° |
| 2026-04-26 16:39 | 45.01942 | 7.80709 | 26090 ft | 473 kts | 336° |
| 2026-04-26 16:39 | 45.04987 | 7.78927 | 26310 ft | 472 kts | 336° |
| 2026-04-26 16:39 | 45.08022 | 7.77146 | 26526 ft | 472 kts | 336° |
| 2026-04-26 16:39 | 45.11052 | 7.75367 | 26755 ft | 471 kts | 336° |
| 2026-04-26 16:40 | 45.14082 | 7.73584 | 26987 ft | 471 kts | 335° |
| 2026-04-26 16:40 | 45.17104 | 7.71804 | 27219 ft | 470 kts | 335° |
| 2026-04-26 16:40 | 45.20127 | 7.70020 | 27467 ft | 470 kts | 335° |
| 2026-04-26 16:40 | 45.23143 | 7.68238 | 27688 ft | 470 kts | 335° |
| 2026-04-26 16:41 | 45.26124 | 7.66474 | 27925 ft | 469 kts | 335° |
| 2026-04-26 16:41 | 45.29145 | 7.64689 | 28167 ft | 469 kts | 335° |
| 2026-04-26 16:41 | 45.32157 | 7.62914 | 28422 ft | 469 kts | 335° |
| 2026-04-26 16:41 | 45.35167 | 7.61140 | 28700 ft | 468 kts | 335° |
| 2026-04-26 16:42 | 45.38175 | 7.59365 | 28979 ft | 468 kts | 335° |
| 2026-04-26 16:42 | 45.41183 | 7.57585 | 29225 ft | 468 kts | 335° |
| 2026-04-26 16:42 | 45.44187 | 7.55800 | 29502 ft | 468 kts | 335° |
| 2026-04-26 16:42 | 45.47190 | 7.54009 | 29789 ft | 467 kts | 335° |
| 2026-04-26 16:43 | 45.50183 | 7.52223 | 30052 ft | 466 kts | 335° |
| 2026-04-26 16:43 | 45.53174 | 7.50440 | 30334 ft | 466 kts | 334° |
| 2026-04-26 16:43 | 45.56165 | 7.48655 | 30622 ft | 464 kts | 334° |
| 2026-04-26 16:43 | 45.59140 | 7.46880 | 30887 ft | 463 kts | 334° |
| 2026-04-26 16:44 | 45.62108 | 7.45107 | 31143 ft | 462 kts | 334° |
| 2026-04-26 16:44 | 45.65069 | 7.43337 | 31421 ft | 461 kts | 334° |
| 2026-04-26 16:44 | 45.68026 | 7.41571 | 31652 ft | 459 kts | 334° |
| 2026-04-26 16:44 | 45.70971 | 7.39809 | 31804 ft | 458 kts | 335° |
| 2026-04-26 16:45 | 45.73902 | 7.38046 | 32045 ft | 457 kts | 334° |
| 2026-04-26 16:45 | 45.76782 | 7.36308 | 32348 ft | 454 kts | 334° |
| 2026-04-26 16:45 | 45.79635 | 7.34397 | 32648 ft | 450 kts | 328° |
| 2026-04-26 16:45 | 45.82249 | 7.31956 | 32943 ft | 447 kts | 322° |
| 2026-04-26 16:46 | 45.84787 | 7.29376 | 33207 ft | 446 kts | 322° |
| 2026-04-26 16:46 | 45.87317 | 7.26804 | 33479 ft | 445 kts | 322° |
| 2026-04-26 16:46 | 45.89842 | 7.24235 | 33784 ft | 444 kts | 322° |
| 2026-04-26 16:46 | 45.92365 | 7.21665 | 34084 ft | 443 kts | 322° |
| 2026-04-26 16:47 | 45.94875 | 7.19098 | 34361 ft | 443 kts | 322° |
| 2026-04-26 16:47 | 45.97382 | 7.16532 | 34637 ft | 442 kts | 322° |
| 2026-04-26 16:47 | 45.99883 | 7.13972 | 34888 ft | 441 kts | 322° |
| 2026-04-26 16:47 | 46.02376 | 7.11418 | 35099 ft | 441 kts | 323° |
| 2026-04-26 16:48 | 46.04875 | 7.08851 | 35273 ft | 441 kts | 323° |
| 2026-04-26 16:48 | 46.07374 | 7.06284 | 35505 ft | 440 kts | 323° |
| 2026-04-26 16:48 | 46.09866 | 7.03726 | 35723 ft | 440 kts | 323° |
| 2026-04-26 16:48 | 46.12357 | 7.01168 | 35907 ft | 440 kts | 323° |
| 2026-04-26 16:49 | 46.14847 | 6.98610 | 36065 ft | 439 kts | 323° |
| 2026-04-26 16:49 | 46.17338 | 6.96045 | 36130 ft | 440 kts | 323° |
| 2026-04-26 16:49 | 46.22317 | 6.90893 | 36135 ft | 440 kts | 323° |
| 2026-04-26 16:50 | 46.26451 | 6.86614 | 36138 ft | 439 kts | 323° |
| 2026-04-26 16:50 | 46.32227 | 6.80632 | 36141 ft | 439 kts | 323° |
| 2026-04-26 16:51 | 46.37189 | 6.75464 | 36154 ft | 439 kts | 323° |
| 2026-04-26 16:51 | 46.41325 | 6.71140 | 36150 ft | 439 kts | 322° |
| 2026-04-26 16:52 | 46.44935 | 6.66026 | 36148 ft | 437 kts | 307° |
| 2026-04-26 16:52 | 46.48608 | 6.57288 | 36149 ft | 436 kts | 300° |
| 2026-04-26 16:53 | 46.51632 | 6.49647 | 36154 ft | 437 kts | 300° |
| 2026-04-26 16:53 | 46.54653 | 6.41993 | 36147 ft | 437 kts | 300° |
| 2026-04-26 16:54 | 46.57671 | 6.34318 | 36152 ft | 437 kts | 300° |
| 2026-04-26 16:54 | 46.60684 | 6.26629 | 36163 ft | 438 kts | 300° |
| 2026-04-26 16:55 | 46.63691 | 6.18925 | 36161 ft | 437 kts | 300° |
| 2026-04-26 16:55 | 46.66691 | 6.11210 | 36160 ft | 438 kts | 300° |
| 2026-04-26 16:56 | 46.71163 | 5.99680 | 36168 ft | 437 kts | 301° |
| 2026-04-26 16:57 | 46.74154 | 5.91957 | 36173 ft | 437 kts | 301° |
| 2026-04-26 16:57 | 46.78620 | 5.80353 | 36171 ft | 437 kts | 300° |
| 2026-04-26 16:58 | 46.81181 | 5.74014 | 36174 ft | 436 kts | 307° |
| 2026-04-26 16:58 | 46.86045 | 5.66573 | 36171 ft | 433 kts | 318° |
| 2026-04-26 16:59 | 46.88242 | 5.63565 | 36177 ft | 433 kts | 318° |
| 2026-04-26 17:00 | 46.97003 | 5.51521 | 36181 ft | 432 kts | 318° |
| 2026-04-26 17:00 | 47.03560 | 5.42472 | 36186 ft | 431 kts | 317° |
| 2026-04-26 17:01 | 47.07923 | 5.36427 | 36203 ft | 431 kts | 317° |
| 2026-04-26 17:01 | 47.12249 | 5.30436 | 36185 ft | 430 kts | 317° |
| 2026-04-26 17:02 | 47.16619 | 5.24356 | 36182 ft | 430 kts | 317° |
| 2026-04-26 17:02 | 47.20926 | 5.18340 | 36174 ft | 429 kts | 317° |
| 2026-04-26 17:03 | 47.25260 | 5.12280 | 36178 ft | 429 kts | 317° |
| 2026-04-26 17:03 | 47.27423 | 5.09238 | 36022 ft | 429 kts | 317° |
| 2026-04-26 17:03 | 47.29536 | 5.06146 | 35768 ft | 428 kts | 315° |
| 2026-04-26 17:04 | 47.31602 | 5.02993 | 35512 ft | 428 kts | 315° |
| 2026-04-26 17:04 | 47.33645 | 4.99797 | 35267 ft | 428 kts | 314° |
| 2026-04-26 17:04 | 47.35682 | 4.96591 | 34750 ft | 428 kts | 314° |
| 2026-04-26 17:04 | 47.37726 | 4.93385 | 33776 ft | 429 kts | 315° |
| 2026-04-26 17:05 | 47.39785 | 4.90175 | 32687 ft | 431 kts | 315° |
| 2026-04-26 17:05 | 47.41837 | 4.86992 | 31655 ft | 433 kts | 315° |
| 2026-04-26 17:05 | 47.43919 | 4.83770 | 30606 ft | 435 kts | 315° |
| 2026-04-26 17:05 | 47.46019 | 4.80518 | 29351 ft | 438 kts | 314° |
| 2026-04-26 17:06 | 47.48131 | 4.77246 | 28085 ft | 441 kts | 314° |
| 2026-04-26 17:06 | 47.50253 | 4.73956 | 26892 ft | 444 kts | 314° |
| 2026-04-26 17:06 | 47.52400 | 4.70625 | 26390 ft | 451 kts | 314° |
| 2026-04-26 17:06 | 47.54576 | 4.67246 | 26141 ft | 456 kts | 314° |
| 2026-04-26 17:07 | 47.56766 | 4.63836 | 25897 ft | 458 kts | 314° |
| 2026-04-26 17:07 | 47.58963 | 4.60408 | 25641 ft | 459 kts | 313° |
| 2026-04-26 17:07 | 47.61166 | 4.56958 | 25464 ft | 461 kts | 313° |
| 2026-04-26 17:07 | 47.63376 | 4.53492 | 25166 ft | 462 kts | 313° |
| 2026-04-26 17:08 | 47.65588 | 4.50022 | 24842 ft | 464 kts | 313° |
| 2026-04-26 17:08 | 47.67807 | 4.46543 | 24521 ft | 464 kts | 313° |
| 2026-04-26 17:08 | 47.70022 | 4.43068 | 24195 ft | 463 kts | 313° |
| 2026-04-26 17:08 | 47.72231 | 4.39599 | 23876 ft | 462 kts | 313° |
| 2026-04-26 17:09 | 47.74432 | 4.36137 | 23522 ft | 460 kts | 313° |
| 2026-04-26 17:09 | 47.75882 | 4.33850 | 23296 ft | 459 kts | 313° |
| 2026-04-26 17:09 | 47.78802 | 4.29238 | 22884 ft | 456 kts | 313° |
| 2026-04-26 17:09 | 47.80970 | 4.25803 | 22569 ft | 455 kts | 313° |
| 2026-04-26 17:10 | 47.83127 | 4.22380 | 22256 ft | 452 kts | 313° |
| 2026-04-26 17:10 | 47.85263 | 4.18954 | 21938 ft | 451 kts | 310° |
| 2026-04-26 17:10 | 47.87102 | 4.15192 | 21628 ft | 449 kts | 301° |
| 2026-04-26 17:10 | 47.88500 | 4.11049 | 21320 ft | 447 kts | 292° |
| 2026-04-26 17:11 | 47.89435 | 4.06642 | 20999 ft | 446 kts | 283° |
| 2026-04-26 17:11 | 47.90095 | 4.02126 | 20694 ft | 444 kts | 283° |
| 2026-04-26 17:11 | 47.90745 | 3.97635 | 20379 ft | 443 kts | 283° |
| 2026-04-26 17:11 | 47.91394 | 3.93161 | 20070 ft | 441 kts | 283° |
| 2026-04-26 17:12 | 47.92674 | 3.84326 | 19468 ft | 437 kts | 283° |
| 2026-04-26 17:12 | 47.93315 | 3.79896 | 19160 ft | 435 kts | 283° |
| 2026-04-26 17:13 | 47.94532 | 3.71389 | 18690 ft | 401 kts | 283° |
| 2026-04-26 17:13 | 47.95098 | 3.67395 | 18571 ft | 385 kts | 283° |
| 2026-04-26 17:13 | 47.96232 | 3.59894 | 18184 ft | 359 kts | 289° |
| 2026-04-26 17:14 | 47.97242 | 3.56530 | 17887 ft | 353 kts | 301° |
| 2026-04-26 17:14 | 48.00384 | 3.50986 | 17017 ft | 349 kts | 314° |
| 2026-04-26 17:14 | 48.02084 | 3.48410 | 16503 ft | 348 kts | 314° |
| 2026-04-26 17:15 | 48.05462 | 3.43277 | 15480 ft | 345 kts | 314° |
| 2026-04-26 17:15 | 48.07145 | 3.40710 | 15024 ft | 343 kts | 314° |
| 2026-04-26 17:15 | 48.08810 | 3.38159 | 14475 ft | 344 kts | 314° |
| 2026-04-26 17:16 | 48.10464 | 3.35617 | 14088 ft | 339 kts | 314° |
| 2026-04-26 17:16 | 48.12117 | 3.33078 | 13543 ft | 339 kts | 314° |
| 2026-04-26 17:16 | 48.13759 | 3.30554 | 12927 ft | 340 kts | 314° |
| 2026-04-26 17:16 | 48.15394 | 3.28036 | 12602 ft | 333 kts | 314° |
| 2026-04-26 17:17 | 48.16977 | 3.25598 | 12476 ft | 319 kts | 314° |
| 2026-04-26 17:17 | 48.18499 | 3.23260 | 12350 ft | 308 kts | 314° |
| 2026-04-26 17:17 | 48.19968 | 3.21003 | 12136 ft | 300 kts | 314° |
| 2026-04-26 17:17 | 48.21397 | 3.18803 | 11922 ft | 296 kts | 314° |
| 2026-04-26 17:18 | 48.22828 | 3.16596 | 11617 ft | 294 kts | 314° |
| 2026-04-26 17:18 | 48.24245 | 3.14411 | 11316 ft | 292 kts | 314° |
| 2026-04-26 17:18 | 48.25657 | 3.12235 | 11015 ft | 290 kts | 314° |
| 2026-04-26 17:18 | 48.27066 | 3.10061 | 10722 ft | 290 kts | 314° |
| 2026-04-26 17:19 | 48.29869 | 3.05731 | 10133 ft | 287 kts | 314° |
| 2026-04-26 17:19 | 48.31263 | 3.03582 | 10005 ft | 288 kts | 314° |
| 2026-04-26 17:19 | 48.32659 | 3.01427 | 9865 ft | 287 kts | 314° |
| 2026-04-26 17:20 | 48.34052 | 2.99266 | 9720 ft | 288 kts | 314° |
| 2026-04-26 17:20 | 48.34972 | 2.97838 | 9627 ft | 288 kts | 314° |
| 2026-04-26 17:20 | 48.36833 | 2.94949 | 9437 ft | 287 kts | 314° |
| 2026-04-26 17:20 | 48.38218 | 2.92795 | 9294 ft | 287 kts | 314° |
| 2026-04-26 17:21 | 48.39603 | 2.90635 | 9154 ft | 286 kts | 314° |
| 2026-04-26 17:21 | 48.40986 | 2.88484 | 9015 ft | 286 kts | 314° |
| 2026-04-26 17:21 | 48.42369 | 2.86333 | 8870 ft | 285 kts | 314° |
| 2026-04-26 17:21 | 48.43724 | 2.84221 | 8730 ft | 284 kts | 313° |
| 2026-04-26 17:22 | 48.44881 | 2.81832 | 8596 ft | 283 kts | 297° |
| 2026-04-26 17:22 | 48.45546 | 2.79059 | 8458 ft | 282 kts | 281° |
| 2026-04-26 17:22 | 48.45724 | 2.76123 | 8318 ft | 282 kts | 272° |
| 2026-04-26 17:22 | 48.45802 | 2.73174 | 8152 ft | 281 kts | 272° |
| 2026-04-26 17:23 | 48.45886 | 2.70250 | 8012 ft | 280 kts | 272° |
| 2026-04-26 17:23 | 48.45973 | 2.67323 | 7894 ft | 280 kts | 272° |
| 2026-04-26 17:23 | 48.46061 | 2.64381 | 7759 ft | 280 kts | 272° |
| 2026-04-26 17:23 | 48.46167 | 2.61455 | 7623 ft | 280 kts | 274° |
| 2026-04-26 17:24 | 48.46260 | 2.58535 | 7496 ft | 279 kts | 272° |
| 2026-04-26 17:24 | 48.46335 | 2.55618 | 7335 ft | 276 kts | 272° |
| 2026-04-26 17:24 | 48.46410 | 2.52735 | 6931 ft | 274 kts | 272° |
| 2026-04-26 17:24 | 48.46484 | 2.49871 | 6513 ft | 273 kts | 272° |
| 2026-04-26 17:25 | 48.46557 | 2.47020 | 6078 ft | 272 kts | 272° |
| 2026-04-26 17:25 | 48.46628 | 2.44177 | 5638 ft | 270 kts | 272° |
| 2026-04-26 17:25 | 48.46695 | 2.41358 | 5260 ft | 268 kts | 272° |
| 2026-04-26 17:25 | 48.46758 | 2.38540 | 5187 ft | 269 kts | 272° |
| 2026-04-26 17:26 | 48.46818 | 2.35741 | 5196 ft | 271 kts | 272° |
| 2026-04-26 17:26 | 48.46880 | 2.32907 | 5112 ft | 271 kts | 272° |
| 2026-04-26 17:26 | 48.46938 | 2.30068 | 5017 ft | 270 kts | 272° |
| 2026-04-26 17:26 | 48.46991 | 2.27327 | 4989 ft | 254 kts | 272° |
| 2026-04-26 17:27 | 48.47043 | 2.24709 | 4996 ft | 246 kts | 272° |
| 2026-04-26 17:27 | 48.47095 | 2.22174 | 4993 ft | 240 kts | 272° |
| 2026-04-26 17:27 | 48.47144 | 2.19674 | 4994 ft | 239 kts | 272° |
| 2026-04-26 17:27 | 48.47193 | 2.17178 | 4993 ft | 238 kts | 272° |
| 2026-04-26 17:28 | 48.47245 | 2.14682 | 4993 ft | 239 kts | 272° |
| 2026-04-26 17:28 | 48.47302 | 2.12171 | 4995 ft | 239 kts | 272° |
| 2026-04-26 17:28 | 48.47362 | 2.09664 | 4995 ft | 240 kts | 272° |
| 2026-04-26 17:28 | 48.47422 | 2.07154 | 4996 ft | 240 kts | 272° |
| 2026-04-26 17:29 | 48.47482 | 2.04637 | 4995 ft | 240 kts | 272° |
| 2026-04-26 17:29 | 48.47503 | 2.03791 | 4995 ft | 240 kts | 272° |
| 2026-04-26 17:29 | 48.47703 | 1.99628 | 4948 ft | 238 kts | 285° |
| 2026-04-26 17:29 | 48.48459 | 1.97477 | 4756 ft | 229 kts | 313° |
| 2026-04-26 17:30 | 48.49693 | 1.96114 | 4645 ft | 213 kts | 338° |
| 2026-04-26 17:30 | 48.51067 | 1.95662 | 4523 ft | 200 kts | 2° |
| 2026-04-26 17:30 | 48.52396 | 1.95987 | 4409 ft | 187 kts | 15° |
| 2026-04-26 17:30 | 48.53626 | 1.96442 | 4273 ft | 177 kts | 15° |
| 2026-04-26 17:31 | 48.54788 | 1.96864 | 4146 ft | 167 kts | 16° |
| 2026-04-26 17:31 | 48.55885 | 1.97257 | 4063 ft | 156 kts | 15° |
| 2026-04-26 17:31 | 48.56898 | 1.97619 | 4003 ft | 143 kts | 16° |
| 2026-04-26 17:31 | 48.57856 | 1.97963 | 4008 ft | 141 kts | 16° |
| 2026-04-26 17:32 | 48.58803 | 1.98306 | 3997 ft | 138 kts | 17° |
| 2026-04-26 17:32 | 48.59683 | 1.98835 | 4006 ft | 137 kts | 32° |
| 2026-04-26 17:32 | 48.60455 | 1.99850 | 4011 ft | 156 kts | 56° |
| 2026-04-26 17:32 | 48.61058 | 2.01249 | 4012 ft | 161 kts | 58° |
| 2026-04-26 17:33 | 48.61631 | 2.02710 | 4015 ft | 162 kts | 60° |
| 2026-04-26 17:33 | 48.62182 | 2.04192 | 4016 ft | 162 kts | 61° |
| 2026-04-26 17:33 | 48.62719 | 2.05671 | 4004 ft | 161 kts | 62° |
| 2026-04-26 17:34 | 48.63792 | 2.08657 | 3714 ft | 161 kts | 62° |
| 2026-04-26 17:34 | 48.64323 | 2.10140 | 3516 ft | 160 kts | 62° |
| 2026-04-26 17:34 | 48.64848 | 2.11607 | 3308 ft | 158 kts | 62° |
| 2026-04-26 17:34 | 48.65369 | 2.13068 | 3097 ft | 158 kts | 62° |
| 2026-04-26 17:35 | 48.65893 | 2.14534 | 2891 ft | 158 kts | 62° |
| 2026-04-26 17:35 | 48.66401 | 2.15957 | 2694 ft | 146 kts | 61° |
| 2026-04-26 17:35 | 48.66856 | 2.17233 | 2503 ft | 134 kts | 61° |
| 2026-04-26 17:35 | 48.67290 | 2.18450 | 2322 ft | 130 kts | 60° |
| 2026-04-26 17:36 | 48.67715 | 2.19645 | 2153 ft | 129 kts | 61° |
| 2026-04-26 17:36 | 48.68139 | 2.20834 | 1982 ft | 127 kts | 61° |
| 2026-04-26 17:36 | 48.68556 | 2.22006 | 1810 ft | 127 kts | 62° |
| 2026-04-26 17:36 | 48.68974 | 2.23182 | 1635 ft | 127 kts | 61° |
| 2026-04-26 17:37 | 48.69395 | 2.24364 | 1458 ft | 128 kts | 60° |
| 2026-04-26 17:37 | 48.69814 | 2.25544 | 1291 ft | 127 kts | 60° |
| 2026-04-26 17:37 | 48.70093 | 2.26329 | 1167 ft | 128 kts | 61° |
| 2026-04-26 17:38 | 48.70926 | 2.28677 | 813 ft | 126 kts | 60° |
| 2026-04-26 17:38 | 48.71337 | 2.29846 | 695 ft | 128 kts | 61° |
| 2026-04-26 17:38 | 48.71750 | 2.31034 | 465 ft | 127 kts | 61° |
| 2026-04-26 17:38 | 48.72173 | 2.32197 | 356 ft | 126 kts | 60° |
| 2026-04-26 17:39 | 48.72574 | 2.33351 | 295 ft | 115 kts | 60° |
| 2026-04-26 17:39 | 48.72874 | 2.34165 | 294 ft | 63 kts | 61° |
| 2026-04-26 17:39 | 48.72981 | 2.34473 | 293 ft | 19 kts | 71° |
| 2026-04-26 17:39 | 48.72993 | 2.34663 | 296 ft | 7 kts | 82° |
| 2026-04-26 17:40 | 48.73004 | 2.34740 | 293 ft | 9 kts | 77° |
| 2026-04-26 17:40 | 48.73014 | 2.34805 | 294 ft | 10 kts | 76° |
| 2026-04-26 17:40 | 48.73031 | 2.34974 | 293 ft | 14 kts | 82° |
| 2026-04-26 17:40 | 48.73043 | 2.35104 | 294 ft | 11 kts | 83° |
| 2026-04-26 17:41 | 48.73017 | 2.35221 | 296 ft | 13 kts | 123° |
| 2026-04-26 17:41 | 48.72949 | 2.35306 | 298 ft | 7 kts | 153° |
| 2026-04-26 17:41 | 48.72910 | 2.35348 | 296 ft | 6 kts | 125° |
| 2026-04-26 17:41 | 48.72890 | 2.35402 | 296 ft | 5 kts | 129° |
| 2026-04-26 17:42 | 48.72849 | 2.35435 | 295 ft | 13 kts | 162° |
| 2026-04-26 17:42 | 48.72784 | 2.35461 | 294 ft | 7 kts | 164° |
| 2026-04-26 17:42 | 48.72754 | 2.35506 | 295 ft | 6 kts | 109° |
| 2026-04-26 17:42 | 48.72757 | 2.35559 | 294 ft | 5 kts | 78° |
| 2026-04-26 17:43 | 48.72765 | 2.35607 | 297 ft | 5 kts | 73° |
| 2026-04-26 17:43 | 48.72773 | 2.35649 | 294 ft | 1 kts | 73° |
| 2026-04-26 17:43 | 48.72774 | 2.35655 | 293 ft | 0 kts | 76° |
| 2026-04-26 17:43 | 48.72768 | 2.35666 | 296 ft | 2 kts | 126° |
| 2026-04-26 17:44 | 48.72759 | 2.35677 | 296 ft | 3 kts | 138° |
| 2026-04-26 17:44 | 48.72738 | 2.35699 | 294 ft | 2 kts | 147° |
| 2026-04-26 17:44 | 48.72729 | 2.35707 | 294 ft | 0 kts | 148° |
| 2026-04-26 17:44 | 48.72724 | 2.35712 | 294 ft | 0 kts | 148° |